Brunswick, Minnesota
Current Conditions -  °F | °C
As of 12:05 AM on Thursday 29 Jan 2015 (Local Time) from KJMR Reporting Station
Overcast Overcast  
Wind Chill: 23°   Ceiling: 400
Heat Index: 28°   Visibility: 2mi
Dew Point: 28°   Wind: 5mph
Humidity: 100%   Direction: 290°WNW
Pressure: 29.88"   Gusts: NA
Location:  45.9652°N, 93.2874°W
Report Text: KJMR 290605Z AUTO 29004KT 2SM OVC004 M02/M02 A2988 RMK AO2
Loading
Personal Weather Stations






























Interactive Weather Map New forecast layout! Learn more

10-Day Weather Forecast

Advertisements
Track Severe Weather on mobile